createdAt,value
2022-09-13T04:01:53.136Z,84.93
2022-09-13T04:04:56.278Z,85.00
2022-09-13T04:07:58.310Z,84.98
2022-09-13T04:11:01.450Z,85.42
2022-09-13T04:14:03.763Z,84.96
2022-09-13T04:17:06.701Z,85.16
2022-09-13T04:20:08.863Z,85.68
2022-09-13T04:23:11.182Z,85.38
2022-09-13T04:26:13.210Z,85.49
2022-09-13T04:29:15.524Z,83.60
2022-09-13T04:32:17.616Z,84.44
2022-09-13T04:35:20.073Z,83.42
2022-09-13T04:38:22.159Z,84.11
2022-09-13T04:41:24.458Z,84.99
2022-09-13T04:44:27.093Z,85.57
2022-09-13T04:47:29.397Z,85.12
2022-09-13T04:50:31.480Z,85.42
2022-09-13T04:53:33.859Z,84.39
2022-09-13T04:56:36.245Z,85.45
2022-09-13T04:59:38.600Z,85.47
2022-09-13T05:02:40.629Z,85.49
2022-09-13T05:05:42.916Z,85.10
2022-09-13T05:08:45.525Z,84.90
2022-09-13T05:11:47.832Z,84.84
2022-09-13T05:14:49.854Z,84.47
2022-09-13T05:17:52.130Z,83.57
2022-09-13T05:20:55.890Z,83.60
2022-09-13T05:23:58.906Z,83.31
2022-09-13T05:27:00.950Z,83.82
2022-09-13T05:30:03.905Z,82.55
2022-09-13T05:33:05.925Z,82.09
2022-09-13T05:36:08.492Z,81.85
2022-09-13T05:39:44.037Z,81.61
2022-09-13T05:42:40.085Z,81.24
2022-09-13T05:45:42.120Z,80.96
2022-09-13T05:48:44.534Z,80.12
2022-09-13T05:51:46.553Z,79.53
2022-09-13T05:54:48.834Z,79.16
2022-09-13T05:57:50.862Z,80.41
2022-09-13T06:00:56.822Z,78.94
2022-09-13T06:03:59.570Z,78.99
2022-09-13T06:07:01.589Z,78.60
2022-09-13T06:10:05.109Z,78.37
2022-09-13T06:13:07.161Z,78.00
2022-09-13T06:16:11.681Z,78.13
2022-09-13T06:19:13.786Z,76.87
2022-09-13T06:22:16.064Z,77.16
2022-09-13T06:25:18.086Z,76.23
2022-09-13T06:28:21.299Z,76.21
2022-09-13T06:31:26.548Z,75.12
2022-09-13T06:34:31.234Z,74.93
2022-09-13T06:37:33.713Z,74.81
2022-09-13T06:40:36.026Z,74.15
2022-09-13T06:43:38.558Z,74.38
2022-09-13T06:46:40.940Z,74.70
2022-09-13T06:49:43.018Z,74.47
2022-09-13T06:52:45.378Z,72.30
2022-09-13T06:55:47.407Z,70.77
2022-09-13T06:58:52.145Z,68.64
2022-09-13T07:01:54.218Z,65.98
2022-09-13T07:04:56.555Z,67.77
2022-09-13T07:07:58.572Z,65.51
2022-09-13T07:11:00.876Z,65.94
2022-09-13T07:14:03.878Z,63.26
2022-09-13T07:17:06.154Z,61.63
2022-09-13T07:20:08.626Z,61.98
2022-09-13T07:23:15.123Z,61.01
2022-09-13T07:26:17.444Z,61.54
2022-09-13T07:29:23.853Z,61.20
2022-09-13T07:32:26.089Z,61.30
2022-09-13T07:35:28.393Z,58.78
2022-09-13T07:38:30.491Z,57.67
2022-09-13T07:41:33.889Z,57.91
2022-09-13T07:44:35.898Z,57.74
2022-09-13T07:47:38.185Z,56.20
2022-09-13T07:50:40.809Z,56.42
2022-09-13T07:53:44.794Z,53.86
2022-09-13T07:56:50.033Z,54.99
2022-09-13T07:59:52.341Z,54.96
2022-09-13T08:02:54.372Z,55.39
2022-09-13T08:05:56.779Z,55.65
2022-09-13T08:08:59.079Z,54.76
2022-09-13T08:12:01.476Z,56.76
2022-09-13T08:15:04.306Z,55.43
2022-09-13T08:18:06.808Z,55.81
2022-09-13T08:21:08.848Z,54.37
2022-09-13T08:24:17.201Z,54.77
2022-09-13T08:27:19.234Z,52.94
2022-09-13T08:30:21.975Z,53.11
2022-09-13T08:33:24.027Z,52.84
2022-09-13T08:36:28.098Z,52.33
2022-09-13T08:39:30.578Z,52.55
2022-09-13T08:42:53.329Z,52.55
2022-09-13T08:46:05.166Z,52.13
2022-09-13T08:49:48.504Z,52.58
2022-09-13T08:53:02.376Z,52.84
2022-09-13T08:56:37.748Z,52.26
2022-09-13T09:00:01.920Z,50.51
2022-09-13T09:03:29.289Z,49.65
2022-09-13T09:06:33.717Z,49.42
2022-09-13T09:09:44.036Z,50.04
2022-09-13T09:12:52.466Z,49.69
2022-09-13T09:16:00.433Z,49.36
2022-09-13T09:19:12.897Z,50.39
2022-09-13T09:22:21.935Z,48.91
2022-09-13T09:25:26.645Z,47.51
2022-09-13T09:28:31.490Z,47.42
2022-09-13T09:32:27.747Z,47.29
2022-09-13T09:36:11.036Z,48.01
2022-09-13T09:39:16.289Z,46.42
2022-09-13T09:42:28.551Z,46.95
2022-09-13T09:45:34.628Z,46.97
2022-09-13T09:48:44.898Z,47.06
2022-09-13T09:51:46.988Z,47.72
2022-09-13T09:54:50.745Z,46.50
2022-09-13T09:58:11.322Z,45.65
2022-09-13T10:01:35.149Z,46.72
2022-09-13T10:04:37.598Z,47.89
2022-09-13T10:07:40.933Z,46.78
2022-09-13T10:10:51.482Z,45.27
2022-09-13T10:14:01.846Z,45.60
2022-09-13T10:17:28.792Z,45.60
2022-09-13T10:20:31.657Z,44.35
2022-09-13T10:23:35.574Z,44.88
2022-09-13T10:26:37.670Z,43.37
2022-09-13T10:29:39.987Z,44.23
2022-09-13T10:32:54.870Z,45.65
2022-09-13T10:36:01.931Z,45.23
2022-09-13T10:39:08.074Z,45.96
2022-09-13T10:42:10.796Z,44.99
2022-09-13T10:45:23.556Z,44.90
2022-09-13T10:48:29.421Z,43.72
2022-09-13T10:51:36.886Z,44.12
2022-09-13T10:54:39.503Z,42.88
2022-09-13T10:57:41.689Z,43.69
2022-09-13T11:00:59.127Z,44.27
2022-09-13T11:04:19.404Z,44.61
2022-09-13T11:07:38.616Z,44.73
2022-09-13T11:10:40.625Z,43.79
2022-09-13T11:14:24.479Z,44.75
2022-09-13T11:17:29.712Z,44.27
2022-09-13T11:20:42.965Z,43.06
2022-09-13T11:24:22.134Z,43.73
2022-09-13T11:28:02.949Z,42.92
2022-09-13T11:31:47.474Z,42.88
2022-09-13T11:35:28.591Z,41.29
2022-09-13T11:38:52.858Z,41.93
2022-09-13T11:42:05.865Z,41.86
2022-09-13T11:45:18.185Z,41.81
2022-09-13T11:48:53.990Z,42.76
2022-09-13T11:52:02.915Z,41.30
2022-09-13T11:55:19.251Z,40.04
2022-09-13T11:58:38.517Z,41.16
2022-09-13T12:01:47.633Z,40.20
2022-09-13T12:05:21.596Z,41.39
2022-09-13T12:08:35.454Z,40.84
2022-09-13T12:11:45.294Z,38.72
2022-09-13T12:14:58.217Z,39.34
2022-09-13T12:18:31.193Z,39.67
2022-09-13T12:21:40.901Z,39.62
2022-09-13T12:24:49.062Z,39.32
2022-09-13T12:28:02.403Z,39.88
2022-09-13T12:31:11.802Z,38.51
2022-09-13T12:34:24.948Z,39.17
2022-09-13T12:37:36.621Z,40.26
2022-09-13T12:41:16.358Z,39.52
2022-09-13T12:44:37.077Z,39.50
2022-09-13T12:48:12.063Z,39.64
2022-09-13T12:51:51.804Z,40.05
2022-09-13T12:55:04.980Z,41.99
2022-09-13T12:58:45.178Z,40.94
2022-09-13T13:01:50.141Z,41.03
2022-09-13T13:04:56.022Z,41.55
2022-09-13T13:08:02.388Z,41.45
2022-09-13T13:11:04.600Z,42.22
2022-09-13T13:14:09.797Z,41.11
2022-09-13T13:17:36.040Z,42.67
2022-09-13T13:20:56.096Z,41.66
2022-09-13T13:24:17.036Z,41.36
2022-09-13T13:27:46.261Z,43.05
2022-09-13T13:30:53.595Z,42.92
2022-09-13T13:34:03.010Z,42.31
2022-09-13T13:37:28.178Z,42.19
2022-09-13T13:40:30.545Z,42.79
2022-09-13T13:43:35.151Z,42.47
2022-09-13T13:46:37.299Z,42.80
2022-09-13T13:49:40.207Z,42.53
2022-09-13T13:52:48.115Z,41.77
2022-09-13T13:56:07.396Z,41.68
2022-09-13T13:59:16.972Z,41.25
2022-09-13T14:02:23.110Z,41.49
2022-09-13T14:05:31.456Z,42.23
2022-09-13T14:09:04.032Z,41.20
2022-09-13T14:12:19.678Z,41.37
2022-09-13T14:15:31.136Z,41.97
2022-09-13T14:18:48.038Z,43.41
2022-09-13T14:22:06.522Z,42.16
2022-09-13T14:25:22.309Z,41.70
2022-09-13T14:28:25.485Z,42.26
2022-09-13T14:31:27.822Z,42.58
2022-09-13T14:34:29.849Z,41.47
2022-09-13T14:37:38.052Z,42.01
2022-09-13T14:40:40.143Z,41.44
2022-09-13T14:43:44.179Z,41.22
2022-09-13T14:46:53.458Z,42.41
2022-09-13T14:50:03.942Z,42.85
2022-09-13T14:53:12.130Z,42.49
2022-09-13T14:56:20.262Z,42.68
